• Join FlightAware (Why Join?)
  • Login
  • US Flag 
06:46AM EDT


 

Airport Tracker/Info


-or-


 

Live Flight TrackerFlight Track Log ✈ EJA646 ✈ 14-Apr-2013 ✈ KAGS - KCRE

Flight Track Log - Related Links

Times and Time Zones

All times are in EDT time to prevent confusion due to time zone crossing. See the EJA646 flight status page for this flight to view local times or setup timezone preferences in your user account.

Time Position Orientation Groundspeed Altitude Reporting Facility
EDT Latitude Longitude Course Direction KTS MPH feet Rate Location/Type
07:45PM 33.4758 -81.9164 36° Northeast 245 282 6,600  Level Jacksonville Center
07:46PM 33.5422 -81.8583 36° Northeast 259 298 9,900 3,120 Climbing Jacksonville Center
07:47PM 33.6064 -81.7953 39° Northeast 281 323 12,900 2,100 Climbing Jacksonville Center
07:48PM 33.6325 -81.6828 74° East 313 360 14,100 1,380 Climbing Jacksonville Center
07:49PM 33.6414 -81.5528 85° East 343 395 15,700 1,320 Climbing Jacksonville Center
07:50PM 33.6506 -81.4181 85° East 374 430 16,800 600 Climbing Jacksonville Center
07:51PM 33.6572 -81.2881 86° East 387 445 17,000 60 Climbing Jacksonville Center
07:52PM 33.6678 -81.1506 85° East 403 464 17,000  Level Jacksonville Center
07:53PM 33.6764 -81.0108 86° East 410 472 17,000  Level Jacksonville Center
07:54PM 33.6867 -80.8708 85° East 410 472 17,000  Level Jacksonville Center
07:55PM 33.6969 -80.7333 85° East 410 472 17,000  Level Jacksonville Center
07:56PM 33.7047 -80.5933 86° East 416 479 17,000 -60 Level Jacksonville Center
07:57PM 33.7169 -80.4531 84° East 416 479 16,900 -60 Descending Jacksonville Center
07:58PM 33.7267 -80.3156 85° East 421 484 16,900  Level Jacksonville Center
07:59PM 33.7342 -80.1756 86° East 421 484 16,900  Level Jacksonville Center
08:00PM 33.7414 -80.0353 86° East 421 484 16,900  Level Jacksonville Center
08:01PM 33.7508 -79.8978 85° East 421 484 16,900 -60 Level Jacksonville Center
08:02PM 33.7558 -79.7600 87° East 421 484 16,800 -780 Descending Jacksonville Center
08:03PM 33.7647 -79.6225 86° East 421 484 15,400 -2,100 Descending Jacksonville Center
08:04PM 33.7719 -79.4972 86° East 399 459 12,700 -2,100 Descending Jacksonville Center
08:05PM 33.7753 -79.3922 88° East 377 434 11,200 -1,080 Descending Jacksonville Center
08:06PM 33.7806 -79.2769 87° East 357 411 10,600 -1,080 Descending Jacksonville Center
08:07PM 33.7736 -79.1872 95° East 313 360 9,100 -2,340 Descending Jacksonville Center
08:08PM 33.7567 -79.1031 104° East 272 313 6,000 -2,880 Descending Jacksonville Center
08:09PM 33.7375 -79.0242 106° East 255 293 3,400 -1,560 Descending Jacksonville Center
08:10PM 33.7250 -78.9572 103° East 230 265 2,900 -540 Descending Jacksonville Center
08:12PM 33.7684 -78.8408 79° East  Level Estimated
08:19PM 33.8000 -78.7167 North  Level FlightAware Approximate
08:20PM 33.8117 -78.7239 North  Level Estimated
08:21PM 33.8117 -78.7239 North  Level Estimated